sensor_id;sensor_type;location;lat;lon;timestamp;temperature;humidity
2729;DHT22;1372;47.956;7.830;2022-09-20T00:01:49;8.50;99.90
2729;DHT22;1372;47.956;7.830;2022-09-20T00:04:19;8.50;99.90
2729;DHT22;1372;47.956;7.830;2022-09-20T00:07:09;8.50;99.90
2729;DHT22;1372;47.956;7.830;2022-09-20T00:09:40;8.40;99.90
2729;DHT22;1372;47.956;7.830;2022-09-20T00:12:08;8.40;99.90
2729;DHT22;1372;47.956;7.830;2022-09-20T00:14:37;8.40;99.90
2729;DHT22;1372;47.956;7.830;2022-09-20T00:17:08;8.30;99.90
2729;DHT22;1372;47.956;7.830;2022-09-20T00:19:56;8.30;99.90
2729;DHT22;1372;47.956;7.830;2022-09-20T00:22:26;8.40;99.90
2729;DHT22;1372;47.956;7.830;2022-09-20T00:24:54;8.30;99.90
2729;DHT22;1372;47.956;7.830;2022-09-20T00:27:25;8.20;99.90
2729;DHT22;1372;47.956;7.830;2022-09-20T00:29:54;8.20;99.90
2729;DHT22;1372;47.956;7.830;2022-09-20T00:32:22;8.30;99.90
2729;DHT22;1372;47.956;7.830;2022-09-20T00:34:51;8.20;99.90
2729;DHT22;1372;47.956;7.830;2022-09-20T00:37:37;8.20;99.90
2729;DHT22;1372;47.956;7.830;2022-09-20T00:40:13;8.30;99.90
2729;DHT22;1372;47.956;7.830;2022-09-20T00:43:03;8.20;99.90
2729;DHT22;1372;47.956;7.830;2022-09-20T00:45:32;8.20;99.90
2729;DHT22;1372;47.956;7.830;2022-09-20T00:48:05;8.30;99.90
2729;DHT22;1372;47.956;7.830;2022-09-20T00:51:04;8.20;99.90
2729;DHT22;1372;47.956;7.830;2022-09-20T00:53:38;8.20;99.90
2729;DHT22;1372;47.956;7.830;2022-09-20T00:56:13;8.30;99.90
2729;DHT22;1372;47.956;7.830;2022-09-20T00:58:48;8.30;99.90
2729;DHT22;1372;47.956;7.830;2022-09-20T01:01:22;8.20;99.90
2729;DHT22;1372;47.956;7.830;2022-09-20T01:04:10;8.10;99.90
2729;DHT22;1372;47.956;7.830;2022-09-20T01:06:42;8.20;99.90
2729;DHT22;1372;47.956;7.830;2022-09-20T01:09:13;8.10;99.90
2729;DHT22;1372;47.956;7.830;2022-09-20T01:11:45;8.10;99.90
2729;DHT22;1372;47.956;7.830;2022-09-20T01:14:17;8.10;99.90
2729;DHT22;1372;47.956;7.830;2022-09-20T01:16:53;8.10;99.90
2729;DHT22;1372;47.956;7.830;2022-09-20T01:19:33;8.10;99.90
2729;DHT22;1372;47.956;7.830;2022-09-20T01:22:14;8.10;99.90
2729;DHT22;1372;47.956;7.830;2022-09-20T01:25:14;8.10;99.90
2729;DHT22;1372;47.956;7.830;2022-09-20T01:27:48;8.10;99.90
2729;DHT22;1372;47.956;7.830;2022-09-20T01:30:19;8.00;99.90
2729;DHT22;1372;47.956;7.830;2022-09-20T01:33:00;8.00;99.90
2729;DHT22;1372;47.956;7.830;2022-09-20T01:35:34;8.00;99.90
2729;DHT22;1372;47.956;7.830;2022-09-20T01:38:22;8.00;99.90
2729;DHT22;1372;47.956;7.830;2022-09-20T01:41:04;8.00;99.90
2729;DHT22;1372;47.956;7.830;2022-09-20T01:43:41;7.90;99.90
2729;DHT22;1372;47.956;7.830;2022-09-20T01:46:22;7.80;99.90
2729;DHT22;1372;47.956;7.830;2022-09-20T01:49:08;7.90;99.90
2729;DHT22;1372;47.956;7.830;2022-09-20T01:52:16;7.90;99.90
2729;DHT22;1372;47.956;7.830;2022-09-20T01:55:11;7.90;99.90
2729;DHT22;1372;47.956;7.830;2022-09-20T02:02:09;7.90;99.90
2729;DHT22;1372;47.956;7.830;2022-09-20T02:05:07;7.90;99.90
2729;DHT22;1372;47.956;7.830;2022-09-20T02:08:05;7.90;99.90
2729;DHT22;1372;47.956;7.830;2022-09-20T02:11:06;7.90;99.90
2729;DHT22;1372;47.956;7.830;2022-09-20T02:13:53;7.90;99.90
2729;DHT22;1372;47.956;7.830;2022-09-20T02:16:43;7.90;99.90
2729;DHT22;1372;47.956;7.830;2022-09-20T02:19:48;7.90;99.90
2729;DHT22;1372;47.956;7.830;2022-09-20T02:22:47;7.80;99.90
2729;DHT22;1372;47.956;7.830;2022-09-20T02:25:35;7.80;99.90
2729;DHT22;1372;47.956;7.830;2022-09-20T02:28:28;7.70;99.90
2729;DHT22;1372;47.956;7.830;2022-09-20T02:31:11;7.80;99.90
2729;DHT22;1372;47.956;7.830;2022-09-20T02:34:15;7.70;99.90
2729;DHT22;1372;47.956;7.830;2022-09-20T02:37:47;7.80;99.90
2729;DHT22;1372;47.956;7.830;2022-09-20T02:40:59;7.70;99.90
2729;DHT22;1372;47.956;7.830;2022-09-20T02:43:44;7.60;99.90
2729;DHT22;1372;47.956;7.830;2022-09-20T02:46:21;7.70;99.90
2729;DHT22;1372;47.956;7.830;2022-09-20T02:49:01;7.50;99.90
2729;DHT22;1372;47.956;7.830;2022-09-20T02:51:39;7.70;99.90
2729;DHT22;1372;47.956;7.830;2022-09-20T02:54:18;7.70;99.90
2729;DHT22;1372;47.956;7.830;2022-09-20T02:56:58;7.60;99.90
2729;DHT22;1372;47.956;7.830;2022-09-20T02:59:37;7.60;99.90
2729;DHT22;1372;47.956;7.830;2022-09-20T03:02:14;7.60;99.90
2729;DHT22;1372;47.956;7.830;2022-09-20T03:05:09;7.60;99.90
2729;DHT22;1372;47.956;7.830;2022-09-20T03:07:49;7.60;99.90
2729;DHT22;1372;47.956;7.830;2022-09-20T03:10:33;7.70;99.90
2729;DHT22;1372;47.956;7.830;2022-09-20T03:13:20;7.60;99.90
2729;DHT22;1372;47.956;7.830;2022-09-20T03:16:00;7.70;99.90
2729;DHT22;1372;47.956;7.830;2022-09-20T03:18:35;7.60;99.90
2729;DHT22;1372;47.956;7.830;2022-09-20T03:21:22;7.40;99.90
2729;DHT22;1372;47.956;7.830;2022-09-20T03:24:08;7.50;99.90
2729;DHT22;1372;47.956;7.830;2022-09-20T03:26:55;7.30;99.90
2729;DHT22;1372;47.956;7.830;2022-09-20T03:29:38;7.30;99.90
2729;DHT22;1372;47.956;7.830;2022-09-20T03:32:26;7.30;99.90
2729;DHT22;1372;47.956;7.830;2022-09-20T03:35:08;7.40;99.90
2729;DHT22;1372;47.956;7.830;2022-09-20T03:38:09;7.40;99.90
2729;DHT22;1372;47.956;7.830;2022-09-20T03:41:18;7.50;99.90
2729;DHT22;1372;47.956;7.830;2022-09-20T03:44:26;7.40;99.90
2729;DHT22;1372;47.956;7.830;2022-09-20T03:47:13;7.50;99.90
2729;DHT22;1372;47.956;7.830;2022-09-20T03:50:29;7.40;99.90
2729;DHT22;1372;47.956;7.830;2022-09-20T03:53:30;7.30;99.90
2729;DHT22;1372;47.956;7.830;2022-09-20T03:56:38;7.40;99.90
2729;DHT22;1372;47.956;7.830;2022-09-20T03:59:51;7.30;99.90
2729;DHT22;1372;47.956;7.830;2022-09-20T04:02:51;7.30;99.90
2729;DHT22;1372;47.956;7.830;2022-09-20T04:05:32;7.30;99.90
2729;DHT22;1372;47.956;7.830;2022-09-20T04:08:14;7.40;99.90
2729;DHT22;1372;47.956;7.830;2022-09-20T04:10:57;7.30;99.90
2729;DHT22;1372;47.956;7.830;2022-09-20T04:13:35;7.40;99.90
2729;DHT22;1372;47.956;7.830;2022-09-20T04:16:19;7.30;99.90
2729;DHT22;1372;47.956;7.830;2022-09-20T04:18:56;7.30;99.90
2729;DHT22;1372;47.956;7.830;2022-09-20T04:21:30;7.30;99.90
2729;DHT22;1372;47.956;7.830;2022-09-20T04:24:08;7.30;99.90
2729;DHT22;1372;47.956;7.830;2022-09-20T04:26:59;7.40;99.90
2729;DHT22;1372;47.956;7.830;2022-09-20T04:29:39;7.30;99.90
2729;DHT22;1372;47.956;7.830;2022-09-20T04:32:17;7.20;99.90
2729;DHT22;1372;47.956;7.830;2022-09-20T04:34:56;7.30;99.90
2729;DHT22;1372;47.956;7.830;2022-09-20T04:38:09;7.30;99.90
2729;DHT22;1372;47.956;7.830;2022-09-20T04:40:59;7.30;99.90
2729;DHT22;1372;47.956;7.830;2022-09-20T04:44:15;7.40;99.90
2729;DHT22;1372;47.956;7.830;2022-09-20T04:54:03;7.20;99.90
2729;DHT22;1372;47.956;7.830;2022-09-20T04:57:02;7.20;99.90
2729;DHT22;1372;47.956;7.830;2022-09-20T04:59:49;7.10;99.90
2729;DHT22;1372;47.956;7.830;2022-09-20T05:02:53;7.10;99.90
2729;DHT22;1372;47.956;7.830;2022-09-20T05:06:12;7.10;99.90
2729;DHT22;1372;47.956;7.830;2022-09-20T05:09:32;7.10;99.90
2729;DHT22;1372;47.956;7.830;2022-09-20T05:12:51;7.20;99.90
2729;DHT22;1372;47.956;7.830;2022-09-20T05:15:40;7.30;99.90
2729;DHT22;1372;47.956;7.830;2022-09-20T05:18:39;7.20;99.90
2729;DHT22;1372;47.956;7.830;2022-09-20T05:21:49;7.20;99.90
2729;DHT22;1372;47.956;7.830;2022-09-20T05:24:49;7.10;99.90
2729;DHT22;1372;47.956;7.830;2022-09-20T05:27:38;7.10;99.90
2729;DHT22;1372;47.956;7.830;2022-09-20T05:30:19;7.10;99.90
2729;DHT22;1372;47.956;7.830;2022-09-20T05:33:03;7.10;99.90
2729;DHT22;1372;47.956;7.830;2022-09-20T05:35:44;7.10;99.90
2729;DHT22;1372;47.956;7.830;2022-09-20T05:38:24;7.20;99.90
2729;DHT22;1372;47.956;7.830;2022-09-20T05:41:09;7.20;99.90
2729;DHT22;1372;47.956;7.830;2022-09-20T05:43:50;7.20;99.90
2729;DHT22;1372;47.956;7.830;2022-09-20T05:46:34;7.20;99.90
2729;DHT22;1372;47.956;7.830;2022-09-20T05:49:15;7.20;99.90
2729;DHT22;1372;47.956;7.830;2022-09-20T05:52:03;7.20;99.90
2729;DHT22;1372;47.956;7.830;2022-09-20T05:58:06;7.30;99.90
2729;DHT22;1372;47.956;7.830;2022-09-20T06:00:52;7.20;99.90
2729;DHT22;1372;47.956;7.830;2022-09-20T06:03:48;7.20;99.90
2729;DHT22;1372;47.956;7.830;2022-09-20T06:06:24;7.30;99.90
2729;DHT22;1372;47.956;7.830;2022-09-20T06:09:17;7.40;99.90
2729;DHT22;1372;47.956;7.830;2022-09-20T06:12:05;7.40;99.90
2729;DHT22;1372;47.956;7.830;2022-09-20T06:14:47;7.40;99.90
2729;DHT22;1372;47.956;7.830;2022-09-20T06:17:24;7.50;99.90
2729;DHT22;1372;47.956;7.830;2022-09-20T06:20:07;7.50;99.90
2729;DHT22;1372;47.956;7.830;2022-09-20T06:22:44;7.60;99.90
2729;DHT22;1372;47.956;7.830;2022-09-20T06:25:19;7.70;99.90
2729;DHT22;1372;47.956;7.830;2022-09-20T06:27:54;7.80;99.90
2729;DHT22;1372;47.956;7.830;2022-09-20T06:30:29;7.80;99.90
2729;DHT22;1372;47.956;7.830;2022-09-20T06:33:13;7.80;99.90
2729;DHT22;1372;47.956;7.830;2022-09-20T06:35:47;7.80;99.90
2729;DHT22;1372;47.956;7.830;2022-09-20T06:38:36;7.90;99.90
2729;DHT22;1372;47.956;7.830;2022-09-20T06:41:49;7.90;99.90
2729;DHT22;1372;47.956;7.830;2022-09-20T06:44:19;8.00;99.90
2729;DHT22;1372;47.956;7.830;2022-09-20T06:46:48;8.10;99.90
2729;DHT22;1372;47.956;7.830;2022-09-20T06:49:20;8.20;99.90
2729;DHT22;1372;47.956;7.830;2022-09-20T06:51:50;8.20;99.90
2729;DHT22;1372;47.956;7.830;2022-09-20T06:54:20;8.30;99.90
2729;DHT22;1372;47.956;7.830;2022-09-20T06:56:50;8.40;99.90
2729;DHT22;1372;47.956;7.830;2022-09-20T06:59:39;8.50;99.90
2729;DHT22;1372;47.956;7.830;2022-09-20T07:02:08;8.60;99.90
2729;DHT22;1372;47.956;7.830;2022-09-20T07:04:37;8.60;99.90
2729;DHT22;1372;47.956;7.830;2022-09-20T07:07:07;8.70;99.90
2729;DHT22;1372;47.956;7.830;2022-09-20T07:09:36;8.70;99.90
2729;DHT22;1372;47.956;7.830;2022-09-20T07:12:06;8.80;99.90
2729;DHT22;1372;47.956;7.830;2022-09-20T07:14:38;8.90;99.90
2729;DHT22;1372;47.956;7.830;2022-09-20T07:17:07;9.00;99.90
2729;DHT22;1372;47.956;7.830;2022-09-20T07:19:38;9.10;99.90
2729;DHT22;1372;47.956;7.830;2022-09-20T07:22:06;9.10;99.90
2729;DHT22;1372;47.956;7.830;2022-09-20T07:24:36;9.30;99.90
2729;DHT22;1372;47.956;7.830;2022-09-20T07:27:06;9.40;99.90
2729;DHT22;1372;47.956;7.830;2022-09-20T07:29:35;9.50;99.90
2729;DHT22;1372;47.956;7.830;2022-09-20T07:32:24;9.50;99.90
2729;DHT22;1372;47.956;7.830;2022-09-20T07:34:53;9.60;99.90
2729;DHT22;1372;47.956;7.830;2022-09-20T07:37:22;9.80;99.90
2729;DHT22;1372;47.956;7.830;2022-09-20T07:39:53;9.90;99.90
2729;DHT22;1372;47.956;7.830;2022-09-20T07:42:22;10.00;99.90
2729;DHT22;1372;47.956;7.830;2022-09-20T07:44:57;10.10;99.90
2729;DHT22;1372;47.956;7.830;2022-09-20T07:47:29;10.10;99.90
2729;DHT22;1372;47.956;7.830;2022-09-20T07:50:02;10.20;99.90
2729;DHT22;1372;47.956;7.830;2022-09-20T07:52:31;10.30;99.90
2729;DHT22;1372;47.956;7.830;2022-09-20T07:55:00;10.40;99.90
2729;DHT22;1372;47.956;7.830;2022-09-20T07:57:33;10.50;99.90
2729;DHT22;1372;47.956;7.830;2022-09-20T08:00:23;10.50;99.90
2729;DHT22;1372;47.956;7.830;2022-09-20T08:02:58;10.60;99.90
2729;DHT22;1372;47.956;7.830;2022-09-20T08:05:27;10.70;99.90
2729;DHT22;1372;47.956;7.830;2022-09-20T08:07:57;10.70;99.90
2729;DHT22;1372;47.956;7.830;2022-09-20T08:10:27;10.70;99.90
2729;DHT22;1372;47.956;7.830;2022-09-20T08:12:58;10.80;99.90
2729;DHT22;1372;47.956;7.830;2022-09-20T08:15:47;10.90;99.90
2729;DHT22;1372;47.956;7.830;2022-09-20T08:18:36;11.10;99.90
2729;DHT22;1372;47.956;7.830;2022-09-20T08:21:07;11.10;99.90
2729;DHT22;1372;47.956;7.830;2022-09-20T08:23:37;11.20;99.90
2729;DHT22;1372;47.956;7.830;2022-09-20T08:26:27;11.30;99.90
2729;DHT22;1372;47.956;7.830;2022-09-20T08:28:59;11.40;99.90
2729;DHT22;1372;47.956;7.830;2022-09-20T08:31:47;11.40;99.90
2729;DHT22;1372;47.956;7.830;2022-09-20T08:34:16;11.50;99.90
2729;DHT22;1372;47.956;7.830;2022-09-20T08:37:04;11.70;99.90
2729;DHT22;1372;47.956;7.830;2022-09-20T08:39:38;11.80;99.90
2729;DHT22;1372;47.956;7.830;2022-09-20T08:42:28;11.80;99.90
2729;DHT22;1372;47.956;7.830;2022-09-20T08:45:11;11.80;99.90
2729;DHT22;1372;47.956;7.830;2022-09-20T08:47:50;11.90;99.90
2729;DHT22;1372;47.956;7.830;2022-09-20T08:50:25;11.90;99.90
2729;DHT22;1372;47.956;7.830;2022-09-20T08:53:12;11.90;99.90
2729;DHT22;1372;47.956;7.830;2022-09-20T08:55:50;12.00;99.90
2729;DHT22;1372;47.956;7.830;2022-09-20T08:58:19;12.00;99.90
2729;DHT22;1372;47.956;7.830;2022-09-20T09:00:49;12.10;99.90
2729;DHT22;1372;47.956;7.830;2022-09-20T09:03:18;12.20;99.90
2729;DHT22;1372;47.956;7.830;2022-09-20T09:05:49;12.20;99.90
2729;DHT22;1372;47.956;7.830;2022-09-20T09:08:22;12.30;99.90
2729;DHT22;1372;47.956;7.830;2022-09-20T09:10:55;12.50;99.90
2729;DHT22;1372;47.956;7.830;2022-09-20T09:13:27;12.50;99.90
2729;DHT22;1372;47.956;7.830;2022-09-20T09:16:06;12.60;99.90
2729;DHT22;1372;47.956;7.830;2022-09-20T09:18:42;12.60;99.90
2729;DHT22;1372;47.956;7.830;2022-09-20T09:21:17;12.70;99.90
2729;DHT22;1372;47.956;7.830;2022-09-20T09:23:51;12.80;99.90
2729;DHT22;1372;47.956;7.830;2022-09-20T09:26:24;12.80;99.90
2729;DHT22;1372;47.956;7.830;2022-09-20T09:29:14;12.80;99.90
2729;DHT22;1372;47.956;7.830;2022-09-20T09:32:21;12.80;99.90
2729;DHT22;1372;47.956;7.830;2022-09-20T09:34:50;12.90;99.90
2729;DHT22;1372;47.956;7.830;2022-09-20T09:37:39;12.90;99.90
2729;DHT22;1372;47.956;7.830;2022-09-20T09:40:22;13.00;99.90
2729;DHT22;1372;47.956;7.830;2022-09-20T09:42:53;13.10;99.90
2729;DHT22;1372;47.956;7.830;2022-09-20T09:45:29;13.20;99.90
2729;DHT22;1372;47.956;7.830;2022-09-20T09:48:01;13.20;99.90
2729;DHT22;1372;47.956;7.830;2022-09-20T09:50:32;13.40;99.90
2729;DHT22;1372;47.956;7.830;2022-09-20T09:53:08;13.40;99.90
2729;DHT22;1372;47.956;7.830;2022-09-20T09:56:05;13.50;99.90
2729;DHT22;1372;47.956;7.830;2022-09-20T09:58:56;13.60;99.90
2729;DHT22;1372;47.956;7.830;2022-09-20T10:01:36;13.60;99.90
2729;DHT22;1372;47.956;7.830;2022-09-20T10:04:12;13.60;99.90
2729;DHT22;1372;47.956;7.830;2022-09-20T10:06:52;13.60;99.90
2729;DHT22;1372;47.956;7.830;2022-09-20T10:09:35;13.60;99.90
2729;DHT22;1372;47.956;7.830;2022-09-20T10:12:33;13.50;99.90
2729;DHT22;1372;47.956;7.830;2022-09-20T10:15:23;13.60;99.90
2729;DHT22;1372;47.956;7.830;2022-09-20T10:18:06;13.60;99.90
2729;DHT22;1372;47.956;7.830;2022-09-20T10:21:03;13.60;99.90
2729;DHT22;1372;47.956;7.830;2022-09-20T10:23:53;13.80;99.90
2729;DHT22;1372;47.956;7.830;2022-09-20T10:27:01;13.80;99.90
2729;DHT22;1372;47.956;7.830;2022-09-20T10:29:59;13.90;99.90
2729;DHT22;1372;47.956;7.830;2022-09-20T10:32:41;13.90;99.90
2729;DHT22;1372;47.956;7.830;2022-09-20T10:35:25;13.90;99.90
2729;DHT22;1372;47.956;7.830;2022-09-20T10:38:15;13.90;99.90
2729;DHT22;1372;47.956;7.830;2022-09-20T10:41:28;13.90;99.90
2729;DHT22;1372;47.956;7.830;2022-09-20T10:44:36;14.00;99.90
2729;DHT22;1372;47.956;7.830;2022-09-20T10:47:14;14.10;99.90
2729;DHT22;1372;47.956;7.830;2022-09-20T10:49:52;14.10;99.90
2729;DHT22;1372;47.956;7.830;2022-09-20T10:52:37;14.10;99.90
2729;DHT22;1372;47.956;7.830;2022-09-20T10:55:31;14.00;99.90
2729;DHT22;1372;47.956;7.830;2022-09-20T10:58:29;14.10;99.90
2729;DHT22;1372;47.956;7.830;2022-09-20T11:01:22;14.20;99.90
2729;DHT22;1372;47.956;7.830;2022-09-20T11:04:27;14.30;99.90
2729;DHT22;1372;47.956;7.830;2022-09-20T11:07:10;14.50;99.90
2729;DHT22;1372;47.956;7.830;2022-09-20T11:09:49;14.50;99.90
2729;DHT22;1372;47.956;7.830;2022-09-20T11:12:24;14.50;99.90
2729;DHT22;1372;47.956;7.830;2022-09-20T11:15:20;14.60;99.90
2729;DHT22;1372;47.956;7.830;2022-09-20T11:17:58;14.70;99.90
2729;DHT22;1372;47.956;7.830;2022-09-20T11:20:34;14.80;99.90
2729;DHT22;1372;47.956;7.830;2022-09-20T11:23:14;14.70;99.90
2729;DHT22;1372;47.956;7.830;2022-09-20T11:25:49;14.80;99.90
2729;DHT22;1372;47.956;7.830;2022-09-20T11:28:25;14.80;99.90
2729;DHT22;1372;47.956;7.830;2022-09-20T11:31:01;14.90;99.90
2729;DHT22;1372;47.956;7.830;2022-09-20T11:33:38;15.00;99.90
2729;DHT22;1372;47.956;7.830;2022-09-20T11:36:15;15.10;99.90
2729;DHT22;1372;47.956;7.830;2022-09-20T11:38:50;15.30;99.90
2729;DHT22;1372;47.956;7.830;2022-09-20T11:41:26;15.30;99.90
2729;DHT22;1372;47.956;7.830;2022-09-20T11:44:01;15.40;99.90
2729;DHT22;1372;47.956;7.830;2022-09-20T11:46:57;15.40;99.90
2729;DHT22;1372;47.956;7.830;2022-09-20T11:49:45;15.40;99.90
2729;DHT22;1372;47.956;7.830;2022-09-20T11:52:32;15.40;99.90
2729;DHT22;1372;47.956;7.830;2022-09-20T11:55:19;15.40;99.90
2729;DHT22;1372;47.956;7.830;2022-09-20T11:58:03;15.50;99.90
2729;DHT22;1372;47.956;7.830;2022-09-20T12:00:37;15.60;99.90
2729;DHT22;1372;47.956;7.830;2022-09-20T12:03:31;15.60;99.90
2729;DHT22;1372;47.956;7.830;2022-09-20T12:06:05;15.70;99.90
2729;DHT22;1372;47.956;7.830;2022-09-20T12:08:38;15.80;99.90
2729;DHT22;1372;47.956;7.830;2022-09-20T12:11:11;15.80;99.90
2729;DHT22;1372;47.956;7.830;2022-09-20T12:13:42;15.80;99.90
2729;DHT22;1372;47.956;7.830;2022-09-20T12:16:38;15.80;99.90
2729;DHT22;1372;47.956;7.830;2022-09-20T12:19:10;15.70;99.90
2729;DHT22;1372;47.956;7.830;2022-09-20T12:22:14;15.80;99.90
2729;DHT22;1372;47.956;7.830;2022-09-20T12:28:02;15.70;99.90
2729;DHT22;1372;47.956;7.830;2022-09-20T12:30:31;15.80;99.90
2729;DHT22;1372;47.956;7.830;2022-09-20T12:33:19;15.80;99.90
2729;DHT22;1372;47.956;7.830;2022-09-20T12:35:52;15.60;99.90
2729;DHT22;1372;47.956;7.830;2022-09-20T12:39:03;15.60;99.90
2729;DHT22;1372;47.956;7.830;2022-09-20T12:41:48;15.60;99.90
2729;DHT22;1372;47.956;7.830;2022-09-20T12:44:34;15.70;99.90
2729;DHT22;1372;47.956;7.830;2022-09-20T12:47:06;15.90;99.90
2729;DHT22;1372;47.956;7.830;2022-09-20T12:49:51;16.00;99.90
2729;DHT22;1372;47.956;7.830;2022-09-20T12:52:49;16.00;99.90
2729;DHT22;1372;47.956;7.830;2022-09-20T12:55:42;16.10;99.90
2729;DHT22;1372;47.956;7.830;2022-09-20T12:58:20;16.10;99.90
2729;DHT22;1372;47.956;7.830;2022-09-20T13:01:29;16.20;99.90
2729;DHT22;1372;47.956;7.830;2022-09-20T13:04:39;16.10;99.90
2729;DHT22;1372;47.956;7.830;2022-09-20T13:10:28;15.90;99.90
2729;DHT22;1372;47.956;7.830;2022-09-20T13:13:13;16.20;99.90
2729;DHT22;1372;47.956;7.830;2022-09-20T13:15:52;16.30;99.90
2729;DHT22;1372;47.956;7.830;2022-09-20T13:18:26;16.50;99.90
2729;DHT22;1372;47.956;7.830;2022-09-20T13:20:59;16.40;99.90
2729;DHT22;1372;47.956;7.830;2022-09-20T13:23:44;16.20;99.90
2729;DHT22;1372;47.956;7.830;2022-09-20T13:26:19;16.20;99.90
2729;DHT22;1372;47.956;7.830;2022-09-20T13:28:55;16.30;99.90
2729;DHT22;1372;47.956;7.830;2022-09-20T13:31:32;16.40;99.90
2729;DHT22;1372;47.956;7.830;2022-09-20T13:34:23;16.60;99.90
2729;DHT22;1372;47.956;7.830;2022-09-20T13:36:56;16.70;99.90
2729;DHT22;1372;47.956;7.830;2022-09-20T13:39:30;16.60;99.90
2729;DHT22;1372;47.956;7.830;2022-09-20T13:42:08;16.30;99.90
2729;DHT22;1372;47.956;7.830;2022-09-20T13:45:01;16.10;99.90
2729;DHT22;1372;47.956;7.830;2022-09-20T13:47:41;15.90;99.90
2729;DHT22;1372;47.956;7.830;2022-09-20T13:50:32;15.70;99.90
2729;DHT22;1372;47.956;7.830;2022-09-20T13:53:14;15.70;99.90
2729;DHT22;1372;47.956;7.830;2022-09-20T13:56:08;15.60;99.90
2729;DHT22;1372;47.956;7.830;2022-09-20T13:58:38;15.80;99.90
2729;DHT22;1372;47.956;7.830;2022-09-20T14:01:28;16.10;99.90
2729;DHT22;1372;47.956;7.830;2022-09-20T14:04:04;16.30;99.90
2729;DHT22;1372;47.956;7.830;2022-09-20T14:06:37;16.60;99.90
2729;DHT22;1372;47.956;7.830;2022-09-20T14:09:26;16.70;99.90
2729;DHT22;1372;47.956;7.830;2022-09-20T14:12:03;16.90;99.90
2729;DHT22;1372;47.956;7.830;2022-09-20T14:14:39;16.90;99.90
2729;DHT22;1372;47.956;7.830;2022-09-20T14:17:14;16.90;99.90
2729;DHT22;1372;47.956;7.830;2022-09-20T14:19:46;17.00;99.90
2729;DHT22;1372;47.956;7.830;2022-09-20T14:22:23;17.00;99.90
2729;DHT22;1372;47.956;7.830;2022-09-20T14:25:01;17.10;99.90
2729;DHT22;1372;47.956;7.830;2022-09-20T14:28:17;17.20;99.90
2729;DHT22;1372;47.956;7.830;2022-09-20T14:30:46;17.40;99.90
2729;DHT22;1372;47.956;7.830;2022-09-20T14:33:18;17.40;99.90
2729;DHT22;1372;47.956;7.830;2022-09-20T14:35:49;17.60;99.90
2729;DHT22;1372;47.956;7.830;2022-09-20T14:38:23;17.60;99.90
2729;DHT22;1372;47.956;7.830;2022-09-20T14:40:52;17.60;99.90
2729;DHT22;1372;47.956;7.830;2022-09-20T14:43:26;17.70;99.90
2729;DHT22;1372;47.956;7.830;2022-09-20T14:46:01;17.70;99.90
2729;DHT22;1372;47.956;7.830;2022-09-20T14:48:35;17.80;99.90
2729;DHT22;1372;47.956;7.830;2022-09-20T14:51:10;17.70;99.90
2729;DHT22;1372;47.956;7.830;2022-09-20T14:57:00;17.80;99.90
2729;DHT22;1372;47.956;7.830;2022-09-20T14:59:35;17.90;99.90
2729;DHT22;1372;47.956;7.830;2022-09-20T15:02:25;17.90;99.90
2729;DHT22;1372;47.956;7.830;2022-09-20T15:04:58;17.90;99.90
2729;DHT22;1372;47.956;7.830;2022-09-20T15:07:27;17.90;99.90
2729;DHT22;1372;47.956;7.830;2022-09-20T15:10:17;17.60;99.90
2729;DHT22;1372;47.956;7.830;2022-09-20T15:12:46;17.60;99.90
2729;DHT22;1372;47.956;7.830;2022-09-20T15:15:17;17.40;99.90
2729;DHT22;1372;47.956;7.830;2022-09-20T15:17:48;17.20;99.90
2729;DHT22;1372;47.956;7.830;2022-09-20T15:20:18;16.90;99.90
2729;DHT22;1372;47.956;7.830;2022-09-20T15:23:10;16.70;99.90
2729;DHT22;1372;47.956;7.830;2022-09-20T15:25:40;16.50;99.90
2729;DHT22;1372;47.956;7.830;2022-09-20T15:28:28;16.50;99.90
2729;DHT22;1372;47.956;7.830;2022-09-20T15:31:01;16.60;99.90
2729;DHT22;1372;47.956;7.830;2022-09-20T15:33:31;16.90;99.90
2729;DHT22;1372;47.956;7.830;2022-09-20T15:36:01;17.10;99.90
2729;DHT22;1372;47.956;7.830;2022-09-20T15:38:33;17.30;99.90
2729;DHT22;1372;47.956;7.830;2022-09-20T15:41:03;17.30;99.90
2729;DHT22;1372;47.956;7.830;2022-09-20T15:43:32;17.40;99.90
2729;DHT22;1372;47.956;7.830;2022-09-20T15:46:16;17.50;99.90
2729;DHT22;1372;47.956;7.830;2022-09-20T15:48:45;17.50;99.90
2729;DHT22;1372;47.956;7.830;2022-09-20T15:51:17;17.50;99.90
2729;DHT22;1372;47.956;7.830;2022-09-20T15:53:53;17.40;99.90
2729;DHT22;1372;47.956;7.830;2022-09-20T15:56:26;17.30;99.90
2729;DHT22;1372;47.956;7.830;2022-09-20T15:58:56;17.40;99.90
2729;DHT22;1372;47.956;7.830;2022-09-20T16:01:28;17.40;99.90
2729;DHT22;1372;47.956;7.830;2022-09-20T16:04:03;17.30;99.90
2729;DHT22;1372;47.956;7.830;2022-09-20T16:06:33;17.30;99.90
2729;DHT22;1372;47.956;7.830;2022-09-20T16:09:03;17.40;99.90
2729;DHT22;1372;47.956;7.830;2022-09-20T16:11:36;17.40;99.90
2729;DHT22;1372;47.956;7.830;2022-09-20T16:14:05;17.40;99.90
2729;DHT22;1372;47.956;7.830;2022-09-20T16:16:35;17.30;99.90
2729;DHT22;1372;47.956;7.830;2022-09-20T16:19:07;17.20;99.90
2729;DHT22;1372;47.956;7.830;2022-09-20T16:21:48;17.20;99.90
2729;DHT22;1372;47.956;7.830;2022-09-20T16:24:25;17.00;99.90
2729;DHT22;1372;47.956;7.830;2022-09-20T16:26:56;16.90;99.90
2729;DHT22;1372;47.956;7.830;2022-09-20T16:29:28;16.80;99.90
2729;DHT22;1372;47.956;7.830;2022-09-20T16:31:58;16.60;99.90
2729;DHT22;1372;47.956;7.830;2022-09-20T16:34:31;16.50;99.90
2729;DHT22;1372;47.956;7.830;2022-09-20T16:37:02;16.30;99.90
2729;DHT22;1372;47.956;7.830;2022-09-20T16:39:35;16.10;99.90
2729;DHT22;1372;47.956;7.830;2022-09-20T16:42:07;15.90;99.90
2729;DHT22;1372;47.956;7.830;2022-09-20T16:44:39;15.80;99.90
2729;DHT22;1372;47.956;7.830;2022-09-20T16:47:11;15.60;99.90
2729;DHT22;1372;47.956;7.830;2022-09-20T16:49:44;15.50;99.90
2729;DHT22;1372;47.956;7.830;2022-09-20T16:52:14;15.40;99.90
2729;DHT22;1372;47.956;7.830;2022-09-20T16:54:43;15.30;99.90
2729;DHT22;1372;47.956;7.830;2022-09-20T16:57:15;15.10;99.90
2729;DHT22;1372;47.956;7.830;2022-09-20T16:59:47;15.00;99.90
2729;DHT22;1372;47.956;7.830;2022-09-20T17:02:21;14.90;99.90
2729;DHT22;1372;47.956;7.830;2022-09-20T17:04:50;14.80;99.90
2729;DHT22;1372;47.956;7.830;2022-09-20T17:07:38;14.70;99.90
2729;DHT22;1372;47.956;7.830;2022-09-20T17:10:10;14.50;99.90
2729;DHT22;1372;47.956;7.830;2022-09-20T17:12:40;14.40;99.90
2729;DHT22;1372;47.956;7.830;2022-09-20T17:15:12;14.20;99.90
2729;DHT22;1372;47.956;7.830;2022-09-20T17:17:42;14.00;99.90
2729;DHT22;1372;47.956;7.830;2022-09-20T17:20:11;13.90;99.90
2729;DHT22;1372;47.956;7.830;2022-09-20T17:22:40;13.90;99.90
2729;DHT22;1372;47.956;7.830;2022-09-20T17:25:09;13.70;99.90
2729;DHT22;1372;47.956;7.830;2022-09-20T17:27:39;13.60;99.90
2729;DHT22;1372;47.956;7.830;2022-09-20T17:30:28;13.50;99.90
2729;DHT22;1372;47.956;7.830;2022-09-20T17:32:57;13.40;99.90
2729;DHT22;1372;47.956;7.830;2022-09-20T17:35:26;13.10;99.90
2729;DHT22;1372;47.956;7.830;2022-09-20T17:37:58;13.00;99.90
2729;DHT22;1372;47.956;7.830;2022-09-20T17:40:29;12.90;99.90
2729;DHT22;1372;47.956;7.830;2022-09-20T17:43:01;12.90;99.90
2729;DHT22;1372;47.956;7.830;2022-09-20T17:45:30;12.80;99.90
2729;DHT22;1372;47.956;7.830;2022-09-20T17:48:00;12.60;99.90
2729;DHT22;1372;47.956;7.830;2022-09-20T17:50:32;12.60;99.90
2729;DHT22;1372;47.956;7.830;2022-09-20T17:53:01;12.50;99.90
2729;DHT22;1372;47.956;7.830;2022-09-20T17:55:30;12.30;99.90
2729;DHT22;1372;47.956;7.830;2022-09-20T17:58:22;12.10;99.90
2729;DHT22;1372;47.956;7.830;2022-09-20T18:01:06;12.10;99.90